sensor_id;sensor_type;location;lat;lon;timestamp;temperature;humidity
6865;DHT22;3471;49.678;8.388;2024-02-15T00:00:40;11.10;99.90
6865;DHT22;3471;49.678;8.388;2024-02-15T00:03:06;11.20;99.90
6865;DHT22;3471;49.678;8.388;2024-02-15T00:05:34;11.20;99.90
6865;DHT22;3471;49.678;8.388;2024-02-15T00:08:03;11.20;99.90
6865;DHT22;3471;49.678;8.388;2024-02-15T00:10:29;11.20;99.90
6865;DHT22;3471;49.678;8.388;2024-02-15T00:12:55;11.30;99.90
6865;DHT22;3471;49.678;8.388;2024-02-15T00:15:20;11.30;99.90
6865;DHT22;3471;49.678;8.388;2024-02-15T00:17:46;11.30;99.90
6865;DHT22;3471;49.678;8.388;2024-02-15T00:20:14;11.30;99.90
6865;DHT22;3471;49.678;8.388;2024-02-15T00:22:40;11.40;99.90
6865;DHT22;3471;49.678;8.388;2024-02-15T00:25:09;11.40;99.90
6865;DHT22;3471;49.678;8.388;2024-02-15T00:27:37;11.30;99.90
6865;DHT22;3471;49.678;8.388;2024-02-15T00:30:04;11.30;99.90
6865;DHT22;3471;49.678;8.388;2024-02-15T00:32:33;11.30;99.90
6865;DHT22;3471;49.678;8.388;2024-02-15T00:34:59;11.40;99.90
6865;DHT22;3471;49.678;8.388;2024-02-15T00:37:24;11.40;99.90
6865;DHT22;3471;49.678;8.388;2024-02-15T00:39:50;11.40;99.90
6865;DHT22;3471;49.678;8.388;2024-02-15T00:42:16;11.50;99.90
6865;DHT22;3471;49.678;8.388;2024-02-15T00:44:41;11.50;99.90
6865;DHT22;3471;49.678;8.388;2024-02-15T00:47:09;11.50;99.90
6865;DHT22;3471;49.678;8.388;2024-02-15T00:49:36;11.40;99.90
6865;DHT22;3471;49.678;8.388;2024-02-15T00:52:02;11.50;99.90
6865;DHT22;3471;49.678;8.388;2024-02-15T00:54:28;11.50;99.90
6865;DHT22;3471;49.678;8.388;2024-02-15T00:56:53;11.60;99.90
6865;DHT22;3471;49.678;8.388;2024-02-15T00:59:19;11.60;99.90
6865;DHT22;3471;49.678;8.388;2024-02-15T01:01:44;11.60;99.90
6865;DHT22;3471;49.678;8.388;2024-02-15T01:04:11;11.60;99.90
6865;DHT22;3471;49.678;8.388;2024-02-15T01:06:37;11.60;99.90
6865;DHT22;3471;49.678;8.388;2024-02-15T01:09:03;11.60;99.90
6865;DHT22;3471;49.678;8.388;2024-02-15T01:11:30;11.50;99.90
6865;DHT22;3471;49.678;8.388;2024-02-15T01:13:57;11.60;99.90
6865;DHT22;3471;49.678;8.388;2024-02-15T01:16:23;11.60;99.90
6865;DHT22;3471;49.678;8.388;2024-02-15T01:18:50;11.50;99.90
6865;DHT22;3471;49.678;8.388;2024-02-15T01:21:15;11.60;99.90
6865;DHT22;3471;49.678;8.388;2024-02-15T01:23:42;11.60;99.90
6865;DHT22;3471;49.678;8.388;2024-02-15T01:26:08;11.70;99.90
6865;DHT22;3471;49.678;8.388;2024-02-15T01:28:33;11.60;99.90
6865;DHT22;3471;49.678;8.388;2024-02-15T01:30:59;11.60;99.90
6865;DHT22;3471;49.678;8.388;2024-02-15T01:33:25;11.60;99.90
6865;DHT22;3471;49.678;8.388;2024-02-15T01:35:50;11.70;99.90
6865;DHT22;3471;49.678;8.388;2024-02-15T01:38:16;11.70;99.90
6865;DHT22;3471;49.678;8.388;2024-02-15T01:40:42;11.70;99.90
6865;DHT22;3471;49.678;8.388;2024-02-15T01:43:08;11.70;99.90
6865;DHT22;3471;49.678;8.388;2024-02-15T01:45:33;11.70;99.90
6865;DHT22;3471;49.678;8.388;2024-02-15T01:47:59;11.60;99.90
6865;DHT22;3471;49.678;8.388;2024-02-15T01:50:25;11.60;99.90
6865;DHT22;3471;49.678;8.388;2024-02-15T01:52:53;11.60;99.90
6865;DHT22;3471;49.678;8.388;2024-02-15T01:55:20;11.60;99.90
6865;DHT22;3471;49.678;8.388;2024-02-15T01:57:48;11.50;99.90
6865;DHT22;3471;49.678;8.388;2024-02-15T02:00:17;11.60;99.90
6865;DHT22;3471;49.678;8.388;2024-02-15T02:02:44;11.60;99.90
6865;DHT22;3471;49.678;8.388;2024-02-15T02:05:10;11.70;99.90
6865;DHT22;3471;49.678;8.388;2024-02-15T02:07:36;11.70;99.90
6865;DHT22;3471;49.678;8.388;2024-02-15T02:10:02;11.70;99.90
6865;DHT22;3471;49.678;8.388;2024-02-15T02:12:28;11.60;99.90
6865;DHT22;3471;49.678;8.388;2024-02-15T02:14:54;11.60;99.90
6865;DHT22;3471;49.678;8.388;2024-02-15T02:17:20;11.70;99.90
6865;DHT22;3471;49.678;8.388;2024-02-15T02:19:47;11.70;99.90
6865;DHT22;3471;49.678;8.388;2024-02-15T02:22:14;11.70;99.90
6865;DHT22;3471;49.678;8.388;2024-02-15T02:27:23;11.60;99.90
6865;DHT22;3471;49.678;8.388;2024-02-15T02:29:50;11.60;99.90
6865;DHT22;3471;49.678;8.388;2024-02-15T02:32:15;11.70;99.90
6865;DHT22;3471;49.678;8.388;2024-02-15T02:34:41;11.60;99.90
6865;DHT22;3471;49.678;8.388;2024-02-15T02:37:07;11.60;99.90
6865;DHT22;3471;49.678;8.388;2024-02-15T02:39:34;11.60;99.90
6865;DHT22;3471;49.678;8.388;2024-02-15T02:42:00;11.70;99.90
6865;DHT22;3471;49.678;8.388;2024-02-15T02:44:25;11.70;99.90
6865;DHT22;3471;49.678;8.388;2024-02-15T02:46:51;11.70;99.90
6865;DHT22;3471;49.678;8.388;2024-02-15T02:49:16;11.60;99.90
6865;DHT22;3471;49.678;8.388;2024-02-15T02:51:42;11.70;99.90
6865;DHT22;3471;49.678;8.388;2024-02-15T02:54:08;11.70;99.90
6865;DHT22;3471;49.678;8.388;2024-02-15T02:56:33;11.70;99.90
6865;DHT22;3471;49.678;8.388;2024-02-15T02:58:59;11.70;99.90
6865;DHT22;3471;49.678;8.388;2024-02-15T03:01:24;11.70;99.90
6865;DHT22;3471;49.678;8.388;2024-02-15T03:03:52;11.70;99.90
6865;DHT22;3471;49.678;8.388;2024-02-15T03:06:20;11.70;99.90
6865;DHT22;3471;49.678;8.388;2024-02-15T03:08:46;11.80;99.90
6865;DHT22;3471;49.678;8.388;2024-02-15T03:11:13;11.70;99.90
6865;DHT22;3471;49.678;8.388;2024-02-15T03:13:39;11.60;99.90
6865;DHT22;3471;49.678;8.388;2024-02-15T03:16:06;11.60;99.90
6865;DHT22;3471;49.678;8.388;2024-02-15T03:18:31;11.60;99.90
6865;DHT22;3471;49.678;8.388;2024-02-15T03:21:00;11.60;99.90
6865;DHT22;3471;49.678;8.388;2024-02-15T03:23:26;11.60;99.90
6865;DHT22;3471;49.678;8.388;2024-02-15T03:25:52;11.60;99.90
6865;DHT22;3471;49.678;8.388;2024-02-15T03:28:19;11.60;99.90
6865;DHT22;3471;49.678;8.388;2024-02-15T03:30:46;11.60;99.90
6865;DHT22;3471;49.678;8.388;2024-02-15T03:33:12;11.70;99.90
6865;DHT22;3471;49.678;8.388;2024-02-15T03:35:38;11.70;99.90
6865;DHT22;3471;49.678;8.388;2024-02-15T03:38:04;11.70;99.90
6865;DHT22;3471;49.678;8.388;2024-02-15T03:40:30;11.60;99.90
6865;DHT22;3471;49.678;8.388;2024-02-15T03:42:57;11.60;99.90
6865;DHT22;3471;49.678;8.388;2024-02-15T03:45:23;11.60;99.90
6865;DHT22;3471;49.678;8.388;2024-02-15T03:47:53;11.60;99.90
6865;DHT22;3471;49.678;8.388;2024-02-15T03:50:19;11.50;99.90
6865;DHT22;3471;49.678;8.388;2024-02-15T03:52:46;11.50;99.90
6865;DHT22;3471;49.678;8.388;2024-02-15T03:55:11;11.40;99.90
6865;DHT22;3471;49.678;8.388;2024-02-15T03:57:40;11.30;99.90
6865;DHT22;3471;49.678;8.388;2024-02-15T04:00:07;11.40;99.90
6865;DHT22;3471;49.678;8.388;2024-02-15T04:02:33;11.30;99.90
6865;DHT22;3471;49.678;8.388;2024-02-15T04:05:00;11.30;99.90
6865;DHT22;3471;49.678;8.388;2024-02-15T04:07:26;11.30;99.90
6865;DHT22;3471;49.678;8.388;2024-02-15T04:09:55;11.30;99.90
6865;DHT22;3471;49.678;8.388;2024-02-15T04:12:20;11.30;99.90
6865;DHT22;3471;49.678;8.388;2024-02-15T04:14:47;11.20;99.90
6865;DHT22;3471;49.678;8.388;2024-02-15T04:17:13;11.10;99.90
6865;DHT22;3471;49.678;8.388;2024-02-15T04:19:45;11.10;99.90
6865;DHT22;3471;49.678;8.388;2024-02-15T04:22:12;11.10;99.90
6865;DHT22;3471;49.678;8.388;2024-02-15T04:24:37;11.10;99.90
6865;DHT22;3471;49.678;8.388;2024-02-15T04:27:06;11.10;99.90
6865;DHT22;3471;49.678;8.388;2024-02-15T04:29:37;11.10;99.90
6865;DHT22;3471;49.678;8.388;2024-02-15T04:32:06;11.10;99.90
6865;DHT22;3471;49.678;8.388;2024-02-15T04:34:39;11.10;99.90
6865;DHT22;3471;49.678;8.388;2024-02-15T04:37:04;11.20;99.90
6865;DHT22;3471;49.678;8.388;2024-02-15T04:39:36;11.20;99.90
6865;DHT22;3471;49.678;8.388;2024-02-15T04:42:02;11.20;99.90
6865;DHT22;3471;49.678;8.388;2024-02-15T04:44:30;11.10;99.90
6865;DHT22;3471;49.678;8.388;2024-02-15T04:46:55;11.20;99.90
6865;DHT22;3471;49.678;8.388;2024-02-15T04:49:21;11.20;99.90
6865;DHT22;3471;49.678;8.388;2024-02-15T04:51:48;11.30;99.90
6865;DHT22;3471;49.678;8.388;2024-02-15T04:54:14;11.30;99.90
6865;DHT22;3471;49.678;8.388;2024-02-15T04:56:40;11.30;99.90
6865;DHT22;3471;49.678;8.388;2024-02-15T04:59:07;11.40;99.90
6865;DHT22;3471;49.678;8.388;2024-02-15T05:01:40;11.40;99.90
6865;DHT22;3471;49.678;8.388;2024-02-15T05:04:08;11.40;99.90
6865;DHT22;3471;49.678;8.388;2024-02-15T05:06:34;11.40;99.90
6865;DHT22;3471;49.678;8.388;2024-02-15T05:08:59;11.40;99.90
6865;DHT22;3471;49.678;8.388;2024-02-15T05:11:26;11.40;99.90
6865;DHT22;3471;49.678;8.388;2024-02-15T05:13:51;11.40;99.90
6865;DHT22;3471;49.678;8.388;2024-02-15T05:16:18;11.40;99.90
6865;DHT22;3471;49.678;8.388;2024-02-15T05:18:44;11.40;99.90
6865;DHT22;3471;49.678;8.388;2024-02-15T05:21:11;11.30;99.90
6865;DHT22;3471;49.678;8.388;2024-02-15T05:23:37;11.30;99.90
6865;DHT22;3471;49.678;8.388;2024-02-15T05:26:05;11.40;99.90
6865;DHT22;3471;49.678;8.388;2024-02-15T05:28:31;11.40;99.90
6865;DHT22;3471;49.678;8.388;2024-02-15T05:31:29;11.50;99.90
6865;DHT22;3471;49.678;8.388;2024-02-15T05:33:55;11.40;99.90
6865;DHT22;3471;49.678;8.388;2024-02-15T05:36:21;11.40;99.90
6865;DHT22;3471;49.678;8.388;2024-02-15T05:38:51;11.50;99.90
6865;DHT22;3471;49.678;8.388;2024-02-15T05:41:17;11.50;99.90
6865;DHT22;3471;49.678;8.388;2024-02-15T05:43:43;11.50;99.90
6865;DHT22;3471;49.678;8.388;2024-02-15T05:46:09;11.50;99.90
6865;DHT22;3471;49.678;8.388;2024-02-15T05:48:36;11.50;99.90
6865;DHT22;3471;49.678;8.388;2024-02-15T05:51:04;11.60;99.90
6865;DHT22;3471;49.678;8.388;2024-02-15T05:53:30;11.60;99.90
6865;DHT22;3471;49.678;8.388;2024-02-15T05:55:56;11.60;99.90
6865;DHT22;3471;49.678;8.388;2024-02-15T05:58:23;11.60;99.90
6865;DHT22;3471;49.678;8.388;2024-02-15T06:00:49;11.60;99.90
6865;DHT22;3471;49.678;8.388;2024-02-15T06:03:18;11.60;99.90
6865;DHT22;3471;49.678;8.388;2024-02-15T06:05:43;11.50;99.90
6865;DHT22;3471;49.678;8.388;2024-02-15T06:08:10;11.40;99.90
6865;DHT22;3471;49.678;8.388;2024-02-15T06:10:38;11.50;99.90
6865;DHT22;3471;49.678;8.388;2024-02-15T06:13:03;11.50;99.90
6865;DHT22;3471;49.678;8.388;2024-02-15T06:15:29;11.50;99.90
6865;DHT22;3471;49.678;8.388;2024-02-15T06:17:55;11.50;99.90
6865;DHT22;3471;49.678;8.388;2024-02-15T06:20:20;11.50;99.90
6865;DHT22;3471;49.678;8.388;2024-02-15T06:22:48;11.50;99.90
6865;DHT22;3471;49.678;8.388;2024-02-15T06:25:14;11.50;99.90
6865;DHT22;3471;49.678;8.388;2024-02-15T06:27:40;11.50;99.90
6865;DHT22;3471;49.678;8.388;2024-02-15T06:30:12;11.50;99.90
6865;DHT22;3471;49.678;8.388;2024-02-15T06:32:57;11.50;99.90
6865;DHT22;3471;49.678;8.388;2024-02-15T06:35:42;11.60;99.90
6865;DHT22;3471;49.678;8.388;2024-02-15T06:38:26;11.50;99.90
6865;DHT22;3471;49.678;8.388;2024-02-15T06:41:11;11.50;99.90
6865;DHT22;3471;49.678;8.388;2024-02-15T06:43:37;11.50;99.90
6865;DHT22;3471;49.678;8.388;2024-02-15T06:46:05;11.40;99.90
6865;DHT22;3471;49.678;8.388;2024-02-15T06:48:31;11.50;99.90
6865;DHT22;3471;49.678;8.388;2024-02-15T06:50:57;11.50;99.90
6865;DHT22;3471;49.678;8.388;2024-02-15T06:53:23;11.60;99.90
6865;DHT22;3471;49.678;8.388;2024-02-15T06:55:49;11.60;99.90
6865;DHT22;3471;49.678;8.388;2024-02-15T06:58:16;11.60;99.90
6865;DHT22;3471;49.678;8.388;2024-02-15T07:00:43;11.60;99.90
6865;DHT22;3471;49.678;8.388;2024-02-15T07:03:09;11.60;99.90
6865;DHT22;3471;49.678;8.388;2024-02-15T07:05:34;11.60;99.90
6865;DHT22;3471;49.678;8.388;2024-02-15T07:08:01;11.60;99.90
6865;DHT22;3471;49.678;8.388;2024-02-15T07:10:26;11.60;99.90
6865;DHT22;3471;49.678;8.388;2024-02-15T07:12:52;11.60;99.90
6865;DHT22;3471;49.678;8.388;2024-02-15T07:15:17;11.60;99.90
6865;DHT22;3471;49.678;8.388;2024-02-15T07:17:43;11.60;99.90
6865;DHT22;3471;49.678;8.388;2024-02-15T07:20:11;11.60;99.90
6865;DHT22;3471;49.678;8.388;2024-02-15T07:22:45;11.50;99.90
6865;DHT22;3471;49.678;8.388;2024-02-15T07:25:11;11.50;99.90
6865;DHT22;3471;49.678;8.388;2024-02-15T07:27:37;11.50;99.90
6865;DHT22;3471;49.678;8.388;2024-02-15T07:30:02;11.60;99.90
6865;DHT22;3471;49.678;8.388;2024-02-15T07:32:31;11.60;99.90
6865;DHT22;3471;49.678;8.388;2024-02-15T07:34:57;11.60;99.90
6865;DHT22;3471;49.678;8.388;2024-02-15T07:37:22;11.60;99.90
6865;DHT22;3471;49.678;8.388;2024-02-15T07:39:51;11.60;99.90
6865;DHT22;3471;49.678;8.388;2024-02-15T07:42:18;11.60;99.90
6865;DHT22;3471;49.678;8.388;2024-02-15T07:44:44;11.70;99.90
6865;DHT22;3471;49.678;8.388;2024-02-15T07:47:09;11.80;99.90
6865;DHT22;3471;49.678;8.388;2024-02-15T07:49:36;11.70;99.90
6865;DHT22;3471;49.678;8.388;2024-02-15T07:52:02;11.70;99.90
6865;DHT22;3471;49.678;8.388;2024-02-15T07:54:30;11.70;99.90
6865;DHT22;3471;49.678;8.388;2024-02-15T07:56:56;11.80;99.90
6865;DHT22;3471;49.678;8.388;2024-02-15T07:59:23;11.80;99.90
6865;DHT22;3471;49.678;8.388;2024-02-15T08:01:49;11.90;99.90
6865;DHT22;3471;49.678;8.388;2024-02-15T08:04:18;11.80;99.90
6865;DHT22;3471;49.678;8.388;2024-02-15T08:06:44;11.90;99.90
6865;DHT22;3471;49.678;8.388;2024-02-15T08:09:10;11.90;99.90
6865;DHT22;3471;49.678;8.388;2024-02-15T08:11:43;11.90;99.90
6865;DHT22;3471;49.678;8.388;2024-02-15T08:14:09;12.00;99.90
6865;DHT22;3471;49.678;8.388;2024-02-15T08:16:37;11.90;99.90
6865;DHT22;3471;49.678;8.388;2024-02-15T08:19:06;12.00;99.90
6865;DHT22;3471;49.678;8.388;2024-02-15T08:21:34;12.10;99.90
6865;DHT22;3471;49.678;8.388;2024-02-15T08:24:04;12.10;99.90
6865;DHT22;3471;49.678;8.388;2024-02-15T08:26:39;12.20;99.90
6865;DHT22;3471;49.678;8.388;2024-02-15T08:29:05;12.20;99.90
6865;DHT22;3471;49.678;8.388;2024-02-15T08:31:34;12.30;99.90
6865;DHT22;3471;49.678;8.388;2024-02-15T08:34:04;12.40;99.90
6865;DHT22;3471;49.678;8.388;2024-02-15T08:36:36;12.50;99.90
6865;DHT22;3471;49.678;8.388;2024-02-15T08:39:01;12.60;99.90
6865;DHT22;3471;49.678;8.388;2024-02-15T08:41:29;12.60;99.90
6865;DHT22;3471;49.678;8.388;2024-02-15T08:43:54;12.70;99.90
6865;DHT22;3471;49.678;8.388;2024-02-15T08:46:22;12.80;99.90
6865;DHT22;3471;49.678;8.388;2024-02-15T08:48:49;12.90;99.90
6865;DHT22;3471;49.678;8.388;2024-02-15T08:51:14;12.90;99.90
6865;DHT22;3471;49.678;8.388;2024-02-15T08:53:41;12.90;99.90
6865;DHT22;3471;49.678;8.388;2024-02-15T08:56:06;13.10;99.90
6865;DHT22;3471;49.678;8.388;2024-02-15T08:58:34;13.20;99.90
6865;DHT22;3471;49.678;8.388;2024-02-15T09:01:00;13.30;99.90
6865;DHT22;3471;49.678;8.388;2024-02-15T09:03:26;13.20;99.90
6865;DHT22;3471;49.678;8.388;2024-02-15T09:05:51;13.30;99.90
6865;DHT22;3471;49.678;8.388;2024-02-15T09:08:17;13.40;99.90
6865;DHT22;3471;49.678;8.388;2024-02-15T09:10:49;13.40;99.90
6865;DHT22;3471;49.678;8.388;2024-02-15T09:13:15;13.50;99.90
6865;DHT22;3471;49.678;8.388;2024-02-15T09:15:41;13.50;99.90
6865;DHT22;3471;49.678;8.388;2024-02-15T09:18:07;13.50;99.90
6865;DHT22;3471;49.678;8.388;2024-02-15T09:20:35;13.60;99.90
6865;DHT22;3471;49.678;8.388;2024-02-15T09:23:03;13.70;99.90
6865;DHT22;3471;49.678;8.388;2024-02-15T09:25:36;13.90;99.90
6865;DHT22;3471;49.678;8.388;2024-02-15T09:28:03;13.90;99.90
6865;DHT22;3471;49.678;8.388;2024-02-15T09:30:28;14.10;99.90
6865;DHT22;3471;49.678;8.388;2024-02-15T09:32:54;14.10;99.90
6865;DHT22;3471;49.678;8.388;2024-02-15T09:35:20;14.10;99.90
6865;DHT22;3471;49.678;8.388;2024-02-15T09:37:47;14.10;99.90
6865;DHT22;3471;49.678;8.388;2024-02-15T09:40:18;14.20;99.90
6865;DHT22;3471;49.678;8.388;2024-02-15T09:42:44;14.30;99.90
6865;DHT22;3471;49.678;8.388;2024-02-15T09:45:11;14.40;99.90
6865;DHT22;3471;49.678;8.388;2024-02-15T09:47:41;14.50;99.90
6865;DHT22;3471;49.678;8.388;2024-02-15T09:50:09;14.50;99.90
6865;DHT22;3471;49.678;8.388;2024-02-15T09:52:40;14.60;99.90
6865;DHT22;3471;49.678;8.388;2024-02-15T09:55:07;14.60;99.90
6865;DHT22;3471;49.678;8.388;2024-02-15T09:57:38;14.80;99.90
6865;DHT22;3471;49.678;8.388;2024-02-15T10:00:05;14.90;99.90
6865;DHT22;3471;49.678;8.388;2024-02-15T10:02:34;15.10;99.90
6865;DHT22;3471;49.678;8.388;2024-02-15T10:05:02;15.20;99.90
6865;DHT22;3471;49.678;8.388;2024-02-15T10:07:27;15.30;99.90
6865;DHT22;3471;49.678;8.388;2024-02-15T10:09:54;15.50;99.90
6865;DHT22;3471;49.678;8.388;2024-02-15T10:12:19;15.60;99.90
6865;DHT22;3471;49.678;8.388;2024-02-15T10:14:50;15.60;99.90
6865;DHT22;3471;49.678;8.388;2024-02-15T10:17:18;15.60;99.90
6865;DHT22;3471;49.678;8.388;2024-02-15T10:19:45;15.60;99.90
6865;DHT22;3471;49.678;8.388;2024-02-15T10:22:27;15.70;99.90
6865;DHT22;3471;49.678;8.388;2024-02-15T10:25:09;15.80;99.90
6865;DHT22;3471;49.678;8.388;2024-02-15T10:27:35;15.80;99.90
6865;DHT22;3471;49.678;8.388;2024-02-15T10:30:15;15.80;99.90
6865;DHT22;3471;49.678;8.388;2024-02-15T10:32:41;15.80;99.90
6865;DHT22;3471;49.678;8.388;2024-02-15T10:35:07;15.90;99.90
6865;DHT22;3471;49.678;8.388;2024-02-15T10:37:32;15.90;99.90
6865;DHT22;3471;49.678;8.388;2024-02-15T10:40:05;15.90;99.90
6865;DHT22;3471;49.678;8.388;2024-02-15T10:42:35;15.90;99.90
6865;DHT22;3471;49.678;8.388;2024-02-15T10:45:05;15.90;99.90
6865;DHT22;3471;49.678;8.388;2024-02-15T10:47:37;16.00;99.90
6865;DHT22;3471;49.678;8.388;2024-02-15T10:50:02;16.10;99.90
6865;DHT22;3471;49.678;8.388;2024-02-15T10:52:31;16.20;99.90
6865;DHT22;3471;49.678;8.388;2024-02-15T10:55:03;16.30;99.90
6865;DHT22;3471;49.678;8.388;2024-02-15T10:57:32;16.40;99.90
6865;DHT22;3471;49.678;8.388;2024-02-15T11:00:02;16.80;99.90
6865;DHT22;3471;49.678;8.388;2024-02-15T11:02:44;17.10;99.90
6865;DHT22;3471;49.678;8.388;2024-02-15T11:05:12;17.40;99.90
6865;DHT22;3471;49.678;8.388;2024-02-15T11:07:40;17.70;99.90
6865;DHT22;3471;49.678;8.388;2024-02-15T11:10:08;18.10;99.90
6865;DHT22;3471;49.678;8.388;2024-02-15T11:12:36;18.30;99.90
6865;DHT22;3471;49.678;8.388;2024-02-15T11:15:03;18.60;99.90
6865;DHT22;3471;49.678;8.388;2024-02-15T11:17:55;18.70;99.90
6865;DHT22;3471;49.678;8.388;2024-02-15T11:22:58;18.70;99.90
6865;DHT22;3471;49.678;8.388;2024-02-15T11:25:33;18.60;99.90
6865;DHT22;3471;49.678;8.388;2024-02-15T11:30:49;18.60;99.90
6865;DHT22;3471;49.678;8.388;2024-02-15T11:33:33;18.70;99.90
6865;DHT22;3471;49.678;8.388;2024-02-15T11:36:07;18.70;99.90
6865;DHT22;3471;49.678;8.388;2024-02-15T11:38:34;18.70;99.90
6865;DHT22;3471;49.678;8.388;2024-02-15T11:43:48;18.80;99.90
6865;DHT22;3471;49.678;8.388;2024-02-15T11:46:27;18.70;99.90
6865;DHT22;3471;49.678;8.388;2024-02-15T11:48:56;18.60;99.90
6865;DHT22;3471;49.678;8.388;2024-02-15T11:51:29;18.70;99.90
6865;DHT22;3471;49.678;8.388;2024-02-15T11:54:06;18.60;99.90
6865;DHT22;3471;49.678;8.388;2024-02-15T11:56:52;18.60;99.90
6865;DHT22;3471;49.678;8.388;2024-02-15T11:59:20;18.60;99.90
6865;DHT22;3471;49.678;8.388;2024-02-15T12:01:57;18.60;99.90
6865;DHT22;3471;49.678;8.388;2024-02-15T12:04:42;18.60;99.90
6865;DHT22;3471;49.678;8.388;2024-02-15T12:07:28;18.80;99.90
6865;DHT22;3471;49.678;8.388;2024-02-15T12:10:16;19.00;99.90
6865;DHT22;3471;49.678;8.388;2024-02-15T12:13:00;19.10;99.90
6865;DHT22;3471;49.678;8.388;2024-02-15T12:15:56;19.20;99.90
6865;DHT22;3471;49.678;8.388;2024-02-15T12:18:41;19.30;99.90
6865;DHT22;3471;49.678;8.388;2024-02-15T12:21:16;19.20;99.90
6865;DHT22;3471;49.678;8.388;2024-02-15T12:23:43;19.20;99.90
6865;DHT22;3471;49.678;8.388;2024-02-15T12:26:09;19.10;99.90
6865;DHT22;3471;49.678;8.388;2024-02-15T12:28:35;18.90;99.90
6865;DHT22;3471;49.678;8.388;2024-02-15T12:31:01;18.80;99.90
6865;DHT22;3471;49.678;8.388;2024-02-15T12:33:27;18.70;99.90
6865;DHT22;3471;49.678;8.388;2024-02-15T12:36:06;18.60;99.90
6865;DHT22;3471;49.678;8.388;2024-02-15T12:38:32;18.50;99.90
6865;DHT22;3471;49.678;8.388;2024-02-15T12:41:01;18.50;99.90
6865;DHT22;3471;49.678;8.388;2024-02-15T12:43:28;18.40;99.90
6865;DHT22;3471;49.678;8.388;2024-02-15T12:45:53;18.20;99.90
6865;DHT22;3471;49.678;8.388;2024-02-15T12:48:21;18.20;99.90
6865;DHT22;3471;49.678;8.388;2024-02-15T12:50:47;18.10;99.90
6865;DHT22;3471;49.678;8.388;2024-02-15T12:53:13;17.90;99.90
6865;DHT22;3471;49.678;8.388;2024-02-15T12:55:52;17.90;99.90
6865;DHT22;3471;49.678;8.388;2024-02-15T12:58:20;17.70;99.90
6865;DHT22;3471;49.678;8.388;2024-02-15T13:00:45;17.70;99.90
6865;DHT22;3471;49.678;8.388;2024-02-15T13:03:11;17.60;99.90
6865;DHT22;3471;49.678;8.388;2024-02-15T13:05:39;17.60;99.90
6865;DHT22;3471;49.678;8.388;2024-02-15T13:08:05;17.50;99.90
6865;DHT22;3471;49.678;8.388;2024-02-15T13:10:35;17.50;99.90
6865;DHT22;3471;49.678;8.388;2024-02-15T13:13:01;17.40;99.90
6865;DHT22;3471;49.678;8.388;2024-02-15T13:15:27;17.30;99.90
6865;DHT22;3471;49.678;8.388;2024-02-15T13:17:56;17.20;99.90
6865;DHT22;3471;49.678;8.388;2024-02-15T13:20:22;17.20;99.90
6865;DHT22;3471;49.678;8.388;2024-02-15T13:23:07;17.20;99.90
6865;DHT22;3471;49.678;8.388;2024-02-15T13:25:51;17.20;99.90
6865;DHT22;3471;49.678;8.388;2024-02-15T13:28:22;17.10;99.90
6865;DHT22;3471;49.678;8.388;2024-02-15T13:30:48;17.10;99.90
6865;DHT22;3471;49.678;8.388;2024-02-15T13:33:15;17.10;99.90
6865;DHT22;3471;49.678;8.388;2024-02-15T13:35:41;17.10;99.90
6865;DHT22;3471;49.678;8.388;2024-02-15T13:38:07;17.10;99.90
6865;DHT22;3471;49.678;8.388;2024-02-15T13:40:39;17.10;99.90
6865;DHT22;3471;49.678;8.388;2024-02-15T13:43:07;17.00;99.90
6865;DHT22;3471;49.678;8.388;2024-02-15T13:45:42;17.00;99.90
6865;DHT22;3471;49.678;8.388;2024-02-15T13:48:10;16.90;99.90
6865;DHT22;3471;49.678;8.388;2024-02-15T13:50:38;16.90;99.90
6865;DHT22;3471;49.678;8.388;2024-02-15T13:53:04;16.90;99.90
6865;DHT22;3471;49.678;8.388;2024-02-15T13:55:31;16.90;99.90
6865;DHT22;3471;49.678;8.388;2024-02-15T13:57:57;16.90;99.90
6865;DHT22;3471;49.678;8.388;2024-02-15T14:00:24;16.90;99.90
6865;DHT22;3471;49.678;8.388;2024-02-15T14:02:58;16.90;99.90
6865;DHT22;3471;49.678;8.388;2024-02-15T14:05:28;16.90;99.90
6865;DHT22;3471;49.678;8.388;2024-02-15T14:07:56;16.90;99.90
6865;DHT22;3471;49.678;8.388;2024-02-15T14:10:23;17.00;99.90
6865;DHT22;3471;49.678;8.388;2024-02-15T14:12:50;17.00;99.90
6865;DHT22;3471;49.678;8.388;2024-02-15T14:15:33;17.10;99.90
6865;DHT22;3471;49.678;8.388;2024-02-15T14:18:10;17.10;99.90
6865;DHT22;3471;49.678;8.388;2024-02-15T14:20:36;17.10;99.90
6865;DHT22;3471;49.678;8.388;2024-02-15T14:23:03;17.10;99.90
6865;DHT22;3471;49.678;8.388;2024-02-15T14:25:32;17.10;99.90
6865;DHT22;3471;49.678;8.388;2024-02-15T14:27:58;17.10;99.90
6865;DHT22;3471;49.678;8.388;2024-02-15T14:30:24;17.10;99.90
6865;DHT22;3471;49.678;8.388;2024-02-15T14:33:08;17.10;99.90
6865;DHT22;3471;49.678;8.388;2024-02-15T14:35:37;17.10;99.90
6865;DHT22;3471;49.678;8.388;2024-02-15T14:38:12;17.20;99.90
6865;DHT22;3471;49.678;8.388;2024-02-15T14:40:45;17.20;99.90
6865;DHT22;3471;49.678;8.388;2024-02-15T14:43:18;17.20;99.90
6865;DHT22;3471;49.678;8.388;2024-02-15T14:45:46;17.20;99.90
6865;DHT22;3471;49.678;8.388;2024-02-15T14:48:12;17.30;99.90
6865;DHT22;3471;49.678;8.388;2024-02-15T14:50:42;17.30;99.90
6865;DHT22;3471;49.678;8.388;2024-02-15T14:53:08;17.30;99.90
6865;DHT22;3471;49.678;8.388;2024-02-15T14:55:37;17.30;99.90
6865;DHT22;3471;49.678;8.388;2024-02-15T14:58:06;17.30;99.90
6865;DHT22;3471;49.678;8.388;2024-02-15T15:00:33;17.30;99.90
6865;DHT22;3471;49.678;8.388;2024-02-15T15:02:59;17.30;99.90
6865;DHT22;3471;49.678;8.388;2024-02-15T15:05:24;17.20;99.90
6865;DHT22;3471;49.678;8.388;2024-02-15T15:08:09;17.20;99.90
6865;DHT22;3471;49.678;8.388;2024-02-15T15:10:54;17.10;99.90
6865;DHT22;3471;49.678;8.388;2024-02-15T15:13:39;17.10;99.90
6865;DHT22;3471;49.678;8.388;2024-02-15T15:16:06;17.10;99.90
6865;DHT22;3471;49.678;8.388;2024-02-15T15:18:33;17.10;99.90
6865;DHT22;3471;49.678;8.388;2024-02-15T15:20:59;17.10;99.90
6865;DHT22;3471;49.678;8.388;2024-02-15T15:23:26;17.00;99.90
6865;DHT22;3471;49.678;8.388;2024-02-15T15:25:52;17.00;99.90
6865;DHT22;3471;49.678;8.388;2024-02-15T15:28:17;17.00;99.90
6865;DHT22;3471;49.678;8.388;2024-02-15T15:30:44;16.90;99.90
6865;DHT22;3471;49.678;8.388;2024-02-15T15:33:17;16.80;99.90
6865;DHT22;3471;49.678;8.388;2024-02-15T15:35:46;16.70;99.90
6865;DHT22;3471;49.678;8.388;2024-02-15T15:38:11;16.70;99.90
6865;DHT22;3471;49.678;8.388;2024-02-15T15:40:37;16.60;99.90
6865;DHT22;3471;49.678;8.388;2024-02-15T15:43:04;16.50;99.90
6865;DHT22;3471;49.678;8.388;2024-02-15T15:45:32;16.50;99.90
6865;DHT22;3471;49.678;8.388;2024-02-15T15:47:58;16.40;99.90
6865;DHT22;3471;49.678;8.388;2024-02-15T15:50:26;16.40;99.90
6865;DHT22;3471;49.678;8.388;2024-02-15T15:52:53;16.30;99.90
6865;DHT22;3471;49.678;8.388;2024-02-15T15:55:19;16.20;99.90
6865;DHT22;3471;49.678;8.388;2024-02-15T15:57:45;16.20;99.90
6865;DHT22;3471;49.678;8.388;2024-02-15T16:00:12;16.20;99.90
6865;DHT22;3471;49.678;8.388;2024-02-15T16:02:39;16.10;99.90
6865;DHT22;3471;49.678;8.388;2024-02-15T16:05:06;16.10;99.90
6865;DHT22;3471;49.678;8.388;2024-02-15T16:07:32;16.00;99.90
6865;DHT22;3471;49.678;8.388;2024-02-15T16:09:57;16.00;99.90
6865;DHT22;3471;49.678;8.388;2024-02-15T16:12:23;16.00;99.90
6865;DHT22;3471;49.678;8.388;2024-02-15T16:14:49;15.90;99.90
6865;DHT22;3471;49.678;8.388;2024-02-15T16:17:15;15.80;99.90
6865;DHT22;3471;49.678;8.388;2024-02-15T16:19:40;15.70;99.90